Time;durP1;ratioP1;P1;durP2;ratioP2;P2;SDS_P1;SDS_P2;PMS_P1;PMS_P2;Temp;Humidity;BMP_temperature;BMP_pressure;BME280_temperature;BME280_humidity;BME280_pressure;Samples;Min_cycle;Max_cycle;Signal;HPM_P1;HPM_P2
2021/09/19 00:00:27;;;;;;;16.00;14.60;;;15.30;99.90;;;;;;5033688;28;20248;-60
2021/09/19 00:02:52;;;;;;;14.20;12.90;;;15.20;99.90;;;;;;5032702;28;20234;-61
2021/09/19 00:05:18;;;;;;;15.40;13.83;;;15.10;99.90;;;;;;5032572;28;20631;-59
2021/09/19 00:07:44;;;;;;;14.03;12.73;;;15.10;99.90;;;;;;5033033;28;20172;-61
2021/09/19 00:10:11;;;;;;;12.83;11.70;;;15.10;99.90;;;;;;5033069;28;20190;-60
2021/09/19 00:12:38;;;;;;;13.77;12.67;;;14.90;99.90;;;;;;5032821;28;20242;-60
2021/09/19 00:15:06;;;;;;;15.30;13.70;;;14.90;99.90;;;;;;5032952;28;20405;-61
2021/09/19 00:17:31;;;;;;;25.47;22.70;;;14.90;99.90;;;;;;5032897;28;20844;-60
2021/09/19 00:19:57;;;;;;;28.93;25.67;;;14.90;99.90;;;;;;5033141;28;20447;-61
2021/09/19 00:22:23;;;;;;;38.67;34.50;;;14.80;99.90;;;;;;5032827;28;20239;-60
2021/09/19 00:24:48;;;;;;;31.87;28.57;;;14.80;99.90;;;;;;5032609;28;20181;-60
2021/09/19 00:27:14;;;;;;;31.20;28.33;;;14.70;99.90;;;;;;5033120;28;20166;-60
2021/09/19 00:29:39;;;;;;;21.20;19.40;;;14.60;99.90;;;;;;5032914;28;20209;-61
2021/09/19 00:32:05;;;;;;;11.93;10.83;;;14.70;99.90;;;;;;5032446;28;20227;-60
2021/09/19 00:34:31;;;;;;;10.37;9.40;;;14.70;99.90;;;;;;5033259;28;20220;-60
2021/09/19 00:36:57;;;;;;;12.50;11.27;;;14.70;99.90;;;;;;5032786;28;20768;-58
2021/09/19 00:39:22;;;;;;;17.80;15.70;;;14.80;99.90;;;;;;5032790;28;20170;-60
2021/09/19 00:41:48;;;;;;;13.90;12.60;;;14.80;99.90;;;;;;5032955;28;20468;-59
2021/09/19 00:44:13;;;;;;;11.33;10.33;;;14.80;99.90;;;;;;5032768;28;20174;-61
2021/09/19 00:46:39;;;;;;;11.97;10.93;;;14.80;99.90;;;;;;5032426;28;20656;-60
2021/09/19 00:49:06;;;;;;;12.53;11.33;;;14.80;99.90;;;;;;5032956;28;20176;-59
2021/09/19 00:51:32;;;;;;;12.83;11.63;;;14.70;99.90;;;;;;5033102;28;20514;-60
2021/09/19 00:53:59;;;;;;;12.90;11.77;;;14.70;99.90;;;;;;5032838;28;20523;-60
2021/09/19 00:56:27;;;;;;;13.60;12.40;;;14.70;99.90;;;;;;5032467;28;20495;-60
2021/09/19 00:58:55;;;;;;;8.80;8.10;;;14.70;99.90;;;;;;5032863;28;20959;-60
2021/09/19 01:01:22;;;;;;;10.33;9.33;;;14.60;99.90;;;;;;5028978;28;20826;-60
2021/09/19 01:03:48;;;;;;;11.83;10.73;;;14.60;99.90;;;;;;5032817;28;20409;-61
2021/09/19 01:06:15;;;;;;;11.70;10.00;;;14.70;99.90;;;;;;5032757;28;20810;-60
2021/09/19 01:08:43;;;;;;;11.33;10.33;;;14.70;99.90;;;;;;5032702;28;20179;-60
2021/09/19 01:11:16;;;;;;;14.33;13.20;;;14.70;99.90;;;;;;5032434;28;20996;-60
2021/09/19 01:13:44;;;;;;;13.10;11.90;;;14.60;99.90;;;;;;5032612;28;20843;-60
2021/09/19 01:16:13;;;;;;;12.30;11.10;;;14.60;99.90;;;;;;5032704;28;20411;-60
2021/09/19 01:18:40;;;;;;;11.60;10.63;;;14.60;99.90;;;;;;5034934;28;20471;-60
2021/09/19 01:21:07;;;;;;;9.63;8.83;;;14.60;99.90;;;;;;5036287;28;20452;-60
2021/09/19 01:23:33;;;;;;;11.87;10.87;;;14.60;99.90;;;;;;5035959;28;20827;-57
2021/09/19 01:26:00;;;;;;;10.83;9.83;;;14.50;99.90;;;;;;5035672;28;20403;-60
2021/09/19 01:28:26;;;;;;;11.60;10.50;;;14.50;99.90;;;;;;5035599;28;20260;-59
2021/09/19 01:30:52;;;;;;;8.83;8.03;;;14.50;99.90;;;;;;5035749;28;20439;-60
2021/09/19 01:33:18;;;;;;;9.57;8.57;;;14.50;99.90;;;;;;5035405;28;20451;-60
2021/09/19 01:35:43;;;;;;;9.03;8.13;;;14.50;99.90;;;;;;5035652;28;20179;-60
2021/09/19 01:38:09;;;;;;;9.50;8.50;;;14.50;99.90;;;;;;5035888;28;20176;-60
2021/09/19 01:40:34;;;;;;;8.10;7.30;;;14.50;99.90;;;;;;5017592;28;20187;-60
2021/09/19 01:43:01;;;;;;;9.27;7.63;;;14.50;99.90;;;;;;5035764;28;20184;-60
2021/09/19 01:45:28;;;;;;;8.67;6.80;;;14.50;99.90;;;;;;5035535;28;20178;-60
2021/09/19 01:47:54;;;;;;;8.77;7.90;;;14.40;99.90;;;;;;5035445;28;20760;-60
2021/09/19 01:50:22;;;;;;;8.53;7.73;;;14.40;99.90;;;;;;5035464;28;20413;-60
2021/09/19 01:52:48;;;;;;;9.30;7.00;;;14.40;99.90;;;;;;5035145;28;21007;-60
2021/09/19 01:55:14;;;;;;;8.50;7.70;;;14.40;99.90;;;;;;5035092;28;20407;-60
2021/09/19 01:57:40;;;;;;;9.10;8.30;;;14.40;99.90;;;;;;5035261;28;20404;-60
2021/09/19 02:00:09;;;;;;;9.07;8.30;;;14.30;99.90;;;;;;5035409;28;20458;-60
2021/09/19 02:02:35;;;;;;;7.90;7.20;;;14.40;99.90;;;;;;5034862;28;20666;-60
2021/09/19 02:05:03;;;;;;;8.03;7.23;;;14.30;99.90;;;;;;5035448;28;20484;-59
2021/09/19 02:07:29;;;;;;;9.50;8.60;;;14.30;99.90;;;;;;5035488;28;20412;-60
2021/09/19 02:09:55;;;;;;;9.40;8.50;;;14.20;99.90;;;;;;5034944;28;20412;-60
2021/09/19 02:12:20;;;;;;;9.93;7.77;;;14.20;99.90;;;;;;5034663;28;20198;-60
2021/09/19 02:14:46;;;;;;;9.60;8.20;;;14.20;99.90;;;;;;5034942;28;20205;-61
2021/09/19 02:17:13;;;;;;;8.00;7.30;;;14.20;99.90;;;;;;5034944;28;20640;-61
2021/09/19 02:19:39;;;;;;;7.60;7.00;;;14.20;99.90;;;;;;5034883;28;20183;-61
2021/09/19 02:22:12;;;;;;;9.07;8.10;;;14.30;99.90;;;;;;5034898;28;20427;-61
2021/09/19 02:24:39;;;;;;;9.03;8.27;;;14.20;99.90;;;;;;5034593;28;20931;-62
2021/09/19 02:27:05;;;;;;;8.50;7.80;;;14.30;99.90;;;;;;5034645;28;20498;-60
2021/09/19 02:29:31;;;;;;;7.30;6.70;;;14.20;99.90;;;;;;5030917;28;20510;-62
2021/09/19 02:31:56;;;;;;;8.00;7.30;;;14.10;99.90;;;;;;5029101;28;20460;-61
2021/09/19 02:34:22;;;;;;;8.67;7.90;;;14.00;99.90;;;;;;5034560;28;20196;-61
2021/09/19 02:36:47;;;;;;;8.00;7.30;;;14.00;99.90;;;;;;5034928;28;20176;-61
2021/09/19 02:39:13;;;;;;;7.87;7.23;;;14.00;99.90;;;;;;5034908;28;20174;-59
2021/09/19 02:41:39;;;;;;;9.70;8.90;;;13.90;99.90;;;;;;5034282;28;20199;-59
2021/09/19 02:44:05;;;;;;;7.97;7.27;;;14.00;99.90;;;;;;5034664;28;20649;-60
2021/09/19 02:46:30;;;;;;;9.53;8.70;;;14.00;99.90;;;;;;5034308;28;20923;-60
2021/09/19 02:48:56;;;;;;;10.20;9.30;;;14.00;99.90;;;;;;5034040;28;20415;-61
2021/09/19 02:51:22;;;;;;;9.93;9.03;;;14.00;99.90;;;;;;5034156;28;20194;-61
2021/09/19 02:53:47;;;;;;;8.03;7.43;;;14.00;99.90;;;;;;5034641;28;20249;-59
2021/09/19 02:56:13;;;;;;;9.40;8.60;;;13.90;99.90;;;;;;5034244;28;20532;-61
2021/09/19 02:58:39;;;;;;;9.83;9.00;;;13.90;99.90;;;;;;5034412;28;20164;-61
2021/09/19 03:01:04;;;;;;;8.70;7.80;;;14.00;99.90;;;;;;5033846;28;20196;-61
2021/09/19 03:03:30;;;;;;;9.90;8.90;;;13.90;99.90;;;;;;5033711;28;20226;-61
2021/09/19 03:05:56;;;;;;;9.77;8.97;;;13.90;99.90;;;;;;5034284;28;20205;-60
2021/09/19 03:08:21;;;;;;;9.60;8.80;;;13.80;99.90;;;;;;5033896;28;20178;-62
2021/09/19 03:10:47;;;;;;;7.63;6.93;;;13.80;99.90;;;;;;5030504;28;20179;-61
2021/09/19 03:13:13;;;;;;;11.43;8.60;;;13.80;99.90;;;;;;5033982;28;20542;-61
2021/09/19 03:15:38;;;;;;;9.87;9.07;;;13.80;99.90;;;;;;5033844;28;20687;-61
2021/09/19 03:18:05;;;;;;;9.70;8.80;;;13.70;99.90;;;;;;5033719;28;20182;-60
2021/09/19 03:20:31;;;;;;;10.70;9.60;;;13.80;99.90;;;;;;5033639;28;20186;-61
2021/09/19 03:22:57;;;;;;;9.80;8.80;;;13.90;99.90;;;;;;5033850;28;20429;-60
2021/09/19 03:25:22;;;;;;;11.77;10.60;;;13.90;99.90;;;;;;5033772;28;20750;-59
2021/09/19 03:27:48;;;;;;;9.60;8.63;;;13.80;99.90;;;;;;5033633;28;20176;-60
2021/09/19 03:30:15;;;;;;;9.90;9.10;;;13.70;99.90;;;;;;5033661;28;20544;-60
2021/09/19 03:32:41;;;;;;;10.47;9.57;;;13.70;99.90;;;;;;5056608;23;20227;-57
2021/09/19 03:35:08;;;;;;;11.83;10.30;;;13.70;99.90;;;;;;5032093;28;20958;-59
2021/09/19 03:37:34;;;;;;;12.50;11.40;;;13.60;99.90;;;;;;5019127;28;20411;-59
2021/09/19 03:39:59;;;;;;;11.33;10.27;;;13.60;99.90;;;;;;5013051;28;20787;-60
2021/09/19 03:42:25;;;;;;;11.77;10.67;;;13.60;99.90;;;;;;5013868;28;20185;-59
2021/09/19 03:44:51;;;;;;;13.63;12.23;;;13.60;99.90;;;;;;5015017;28;20227;-58
2021/09/19 03:47:17;;;;;;;13.17;11.07;;;13.60;99.90;;;;;;5013789;28;20198;-59
2021/09/19 03:49:43;;;;;;;11.73;10.73;;;13.50;99.90;;;;;;5013994;28;20255;-59
2021/09/19 03:52:09;;;;;;;11.30;10.30;;;13.60;99.90;;;;;;5013651;28;20881;-58
2021/09/19 03:54:35;;;;;;;10.30;9.30;;;13.50;99.90;;;;;;5013872;28;20188;-59
2021/09/19 03:57:01;;;;;;;12.83;11.40;;;13.50;99.90;;;;;;5013436;28;20402;-57
2021/09/19 03:59:27;;;;;;;14.53;12.63;;;13.50;99.90;;;;;;5013563;28;20225;-59
2021/09/19 04:01:53;;;;;;;12.90;11.67;;;13.60;99.90;;;;;;5023512;28;20743;-58
2021/09/19 04:04:18;;;;;;;13.73;12.43;;;13.50;99.90;;;;;;5033519;28;20413;-58
2021/09/19 04:06:44;;;;;;;12.30;11.10;;;13.50;99.90;;;;;;5033265;28;20178;-58
2021/09/19 04:09:10;;;;;;;15.30;12.40;;;13.50;99.90;;;;;;5033415;28;20182;-59
2021/09/19 04:11:36;;;;;;;15.80;13.87;;;13.40;99.90;;;;;;5032870;28;20920;-59
2021/09/19 04:14:02;;;;;;;11.90;10.80;;;13.50;99.90;;;;;;5033361;28;20442;-59
2021/09/19 04:16:27;;;;;;;15.40;13.67;;;13.50;99.90;;;;;;5033171;28;20729;-60
2021/09/19 04:18:53;;;;;;;15.27;13.63;;;13.50;99.90;;;;;;5032991;28;20667;-58
2021/09/19 04:21:19;;;;;;;13.70;12.30;;;13.50;99.90;;;;;;5033416;28;20233;-58
2021/09/19 04:23:44;;;;;;;15.00;13.50;;;13.50;99.90;;;;;;5033129;28;20520;-59
2021/09/19 04:26:10;;;;;;;13.00;11.80;;;13.50;99.90;;;;;;5015248;28;20259;-59
2021/09/19 04:28:35;;;;;;;13.30;12.00;;;13.50;99.90;;;;;;5033340;28;20164;-58
2021/09/19 04:31:01;;;;;;;12.93;11.83;;;13.40;99.90;;;;;;5032937;28;20176;-59
2021/09/19 04:33:27;;;;;;;13.10;11.80;;;13.30;99.90;;;;;;5032835;28;20227;-58
2021/09/19 04:35:52;;;;;;;12.00;10.90;;;13.30;99.90;;;;;;5032952;28;20289;-59
2021/09/19 04:38:18;;;;;;;14.67;13.10;;;13.40;99.90;;;;;;5033459;28;20163;-59
2021/09/19 04:40:43;;;;;;;13.53;12.33;;;13.20;99.90;;;;;;5032908;28;20688;-59
2021/09/19 04:43:11;;;;;;;15.43;13.93;;;13.30;99.90;;;;;;5032861;28;20187;-60
2021/09/19 04:45:41;;;;;;;13.83;11.70;;;13.30;99.90;;;;;;5032893;28;20164;-59
2021/09/19 04:48:06;;;;;;;15.10;13.70;;;13.30;99.90;;;;;;5033215;28;20418;-59
2021/09/19 04:50:32;;;;;;;13.17;11.97;;;13.20;99.90;;;;;;5015304;28;20425;-57
2021/09/19 04:52:58;;;;;;;15.10;13.50;;;13.20;99.90;;;;;;5036435;28;20191;-60
2021/09/19 04:55:23;;;;;;;13.80;12.17;;;13.20;99.90;;;;;;5037119;28;20402;-59
2021/09/19 04:57:49;;;;;;;13.73;12.53;;;13.20;99.90;;;;;;5036541;28;20624;-58
2021/09/19 05:00:15;;;;;;;15.47;14.07;;;13.20;99.90;;;;;;5036542;28;20229;-59
2021/09/19 05:02:41;;;;;;;16.30;14.70;;;13.20;99.90;;;;;;5035990;28;20245;-60
2021/09/19 05:05:07;;;;;;;13.70;12.30;;;13.10;99.90;;;;;;5036604;28;20389;-59
2021/09/19 05:07:33;;;;;;;14.13;12.90;;;13.10;99.90;;;;;;5036566;28;20217;-59
2021/09/19 05:09:58;;;;;;;12.87;11.67;;;13.10;99.90;;;;;;5036217;28;20424;-58
2021/09/19 05:12:24;;;;;;;13.90;12.40;;;13.20;99.90;;;;;;5036075;28;20192;-58
2021/09/19 05:14:49;;;;;;;13.20;11.90;;;13.10;99.90;;;;;;5036301;28;20224;-57
2021/09/19 05:17:16;;;;;;;14.87;13.37;;;13.10;99.90;;;;;;5036395;28;20540;-56
2021/09/19 05:19:42;;;;;;;15.50;14.00;;;13.20;99.90;;;;;;5027768;28;20160;-59
2021/09/19 05:22:07;;;;;;;12.67;11.50;;;13.20;99.90;;;;;;5016324;28;20427;-60
2021/09/19 05:24:33;;;;;;;15.30;13.90;;;13.20;99.90;;;;;;5016470;28;20203;-59
2021/09/19 05:26:58;;;;;;;14.73;12.70;;;13.20;99.90;;;;;;5016002;28;20223;-58
2021/09/19 05:29:24;;;;;;;14.63;13.23;;;13.20;99.90;;;;;;5016233;28;20712;-58
2021/09/19 05:31:50;;;;;;;14.70;13.27;;;13.20;99.90;;;;;;5025652;28;20226;-59
2021/09/19 05:34:15;;;;;;;12.70;11.50;;;13.00;99.90;;;;;;5035746;28;20189;-58
2021/09/19 05:36:41;;;;;;;13.53;12.23;;;13.00;99.90;;;;;;5036181;28;20253;-59
2021/09/19 05:39:06;;;;;;;12.63;11.43;;;13.10;99.90;;;;;;5036436;28;20174;-60
2021/09/19 05:41:32;;;;;;;13.83;12.60;;;13.20;99.90;;;;;;5035720;28;20181;-59
2021/09/19 05:43:58;;;;;;;12.10;10.97;;;13.20;99.90;;;;;;5035985;28;20192;-59
2021/09/19 05:46:24;;;;;;;14.33;13.00;;;13.30;99.90;;;;;;5035702;28;20214;-60
2021/09/19 05:48:49;;;;;;;13.60;12.20;;;13.30;99.90;;;;;;5035470;28;20229;-56
2021/09/19 05:51:15;;;;;;;14.27;12.87;;;13.30;99.90;;;;;;5035646;28;20205;-58
2021/09/19 05:53:41;;;;;;;13.53;12.23;;;13.20;99.90;;;;;;5017886;28;20200;-60
2021/09/19 05:56:06;;;;;;;12.23;10.90;;;13.30;99.90;;;;;;5035668;28;20959;-59
2021/09/19 05:58:32;;;;;;;13.70;12.30;;;13.40;99.90;;;;;;5035818;28;20560;-60
2021/09/19 06:00:58;;;;;;;12.33;11.23;;;13.40;99.90;;;;;;5035347;28;20169;-58
2021/09/19 06:03:24;;;;;;;15.90;14.30;;;13.40;99.90;;;;;;5034701;28;20410;-59
2021/09/19 06:05:49;;;;;;;12.90;11.70;;;13.50;99.90;;;;;;5035844;28;20167;-59
2021/09/19 06:08:15;;;;;;;14.50;13.07;;;13.40;99.90;;;;;;5035574;28;20175;-60
2021/09/19 06:10:41;;;;;;;13.03;11.83;;;13.50;99.90;;;;;;5035034;28;20195;-59
2021/09/19 06:13:06;;;;;;;11.50;10.40;;;13.50;99.90;;;;;;5035068;28;20196;-59
2021/09/19 06:15:32;;;;;;;11.23;10.23;;;13.60;99.90;;;;;;5035133;28;20167;-60
2021/09/19 06:17:58;;;;;;;13.67;12.47;;;13.60;99.90;;;;;;5035102;28;20172;-59
2021/09/19 06:20:23;;;;;;;11.37;10.27;;;13.70;99.90;;;;;;5035418;28;20535;-58
2021/09/19 06:22:49;;;;;;;13.87;11.83;;;13.80;99.90;;;;;;5034844;28;20191;-58
2021/09/19 06:25:14;;;;;;;12.17;11.07;;;13.80;99.90;;;;;;5035018;28;20252;-60
2021/09/19 06:27:40;;;;;;;12.50;11.20;;;13.80;99.90;;;;;;5029954;28;20532;-59
2021/09/19 06:30:08;;;;;;;12.67;11.37;;;13.90;99.90;;;;;;5027912;28;20176;-59
2021/09/19 06:32:34;;;;;;;12.90;11.67;;;13.80;99.90;;;;;;5034103;28;20311;-60
2021/09/19 06:34:59;;;;;;;12.17;10.97;;;13.90;99.90;;;;;;5034788;28;20497;-60
2021/09/19 06:37:25;;;;;;;13.33;12.03;;;14.00;99.90;;;;;;5035084;28;20168;-58
2021/09/19 06:39:50;;;;;;;12.20;11.10;;;14.10;99.90;;;;;;5034648;28;20244;-58
2021/09/19 06:42:16;;;;;;;11.03;10.03;;;14.10;99.90;;;;;;5034673;28;20181;-60
2021/09/19 06:44:41;;;;;;;12.03;10.93;;;14.30;99.90;;;;;;5034994;28;20167;-60
2021/09/19 06:47:07;;;;;;;13.33;11.97;;;14.30;99.90;;;;;;5034542;28;20682;-60
2021/09/19 06:49:33;;;;;;;12.37;11.27;;;14.40;99.90;;;;;;5034321;28;20545;-60
2021/09/19 06:51:58;;;;;;;12.03;10.90;;;14.50;99.90;;;;;;5034912;28;20669;-58
2021/09/19 06:54:24;;;;;;;13.10;11.93;;;14.50;99.90;;;;;;5034439;28;20183;-60
2021/09/19 06:56:50;;;;;;;12.27;11.10;;;14.50;99.90;;;;;;5034187;28;20160;-59
2021/09/19 06:59:16;;;;;;;10.37;9.47;;;14.70;99.90;;;;;;5034787;28;20797;-60
2021/09/19 07:01:43;;;;;;;13.20;12.03;;;14.80;99.90;;;;;;5034271;28;20196;-59
2021/09/19 07:04:08;;;;;;;11.97;10.50;;;14.90;99.90;;;;;;5034114;28;20407;-57
2021/09/19 07:06:34;;;;;;;11.60;10.60;;;15.00;99.90;;;;;;5034490;28;20968;-59
2021/09/19 07:09:00;;;;;;;10.27;9.37;;;15.20;99.90;;;;;;5034241;28;20166;-59
2021/09/19 07:11:25;;;;;;;11.70;10.60;;;15.20;99.90;;;;;;5033831;28;20204;-59
2021/09/19 07:13:51;;;;;;;12.87;11.77;;;15.30;99.90;;;;;;5034564;28;20199;-60
2021/09/19 07:16:17;;;;;;;10.90;9.90;;;15.30;99.90;;;;;;5033968;28;20204;-59
2021/09/19 07:18:43;;;;;;;11.27;10.17;;;15.30;99.90;;;;;;5033967;28;20157;-58
2021/09/19 07:21:09;;;;;;;10.17;9.17;;;15.40;99.90;;;;;;5033849;28;20168;-58
2021/09/19 07:23:35;;;;;;;12.03;10.87;;;15.40;99.90;;;;;;5016130;28;20261;-58
2021/09/19 07:26:01;;;;;;;10.33;9.53;;;15.30;99.90;;;;;;5014055;28;20404;-60
2021/09/19 07:28:27;;;;;;;9.97;9.07;;;15.30;99.90;;;;;;5014013;28;20409;-58
2021/09/19 07:30:54;;;;;;;8.50;7.80;;;15.40;99.90;;;;;;5015986;28;20245;-59
2021/09/19 07:33:21;;;;;;;10.00;9.10;;;15.50;99.90;;;;;;5015598;28;20892;-58
2021/09/19 07:35:48;;;;;;;8.77;7.97;;;15.50;99.90;;;;;;5033497;28;20426;-60
2021/09/19 07:38:15;;;;;;;9.57;8.67;;;15.60;99.90;;;;;;5033686;28;20519;-60
2021/09/19 07:40:40;;;;;;;9.00;8.20;;;15.60;99.90;;;;;;5033468;28;20957;-59
2021/09/19 07:43:07;;;;;;;8.47;7.77;;;15.70;99.90;;;;;;5033558;28;20444;-58
2021/09/19 07:45:33;;;;;;;9.07;8.27;;;16.00;99.90;;;;;;5033834;28;20264;-59
2021/09/19 07:48:01;;;;;;;9.53;8.70;;;16.00;99.90;;;;;;5033268;28;20496;-59
2021/09/19 07:50:27;;;;;;;8.30;7.60;;;15.90;99.90;;;;;;5033655;28;20418;-59
2021/09/19 07:52:53;;;;;;;9.50;8.20;;;15.90;99.90;;;;;;5033609;28;20478;-59
2021/09/19 07:55:18;;;;;;;9.03;8.33;;;15.70;99.90;;;;;;5033483;28;20409;-58
2021/09/19 07:57:45;;;;;;;8.80;8.07;;;15.90;99.90;;;;;;5033173;28;20246;-58
2021/09/19 08:00:11;;;;;;;8.93;8.13;;;15.90;99.90;;;;;;5015925;28;20190;-59
2021/09/19 08:02:37;;;;;;;7.70;7.00;;;16.10;99.90;;;;;;5032828;28;20518;-59
2021/09/19 08:05:03;;;;;;;9.00;8.10;;;16.30;99.90;;;;;;5033387;28;20482;-58
2021/09/19 08:07:29;;;;;;;8.57;7.87;;;16.20;99.90;;;;;;5033310;28;20174;-60
2021/09/19 08:09:54;;;;;;;9.00;8.30;;;16.30;99.90;;;;;;5033562;28;20473;-58
2021/09/19 08:12:20;;;;;;;7.70;7.00;;;16.10;99.90;;;;;;5032911;28;20226;-57
2021/09/19 08:14:45;;;;;;;9.50;8.70;;;16.20;99.90;;;;;;5033231;28;20221;-58
2021/09/19 08:17:11;;;;;;;8.27;7.47;;;16.50;99.90;;;;;;5033327;28;20192;-59
2021/09/19 08:19:37;;;;;;;7.00;6.50;;;16.50;99.90;;;;;;5032963;28;20177;-56
2021/09/19 08:22:03;;;;;;;7.43;6.80;;;16.60;99.90;;;;;;5033083;28;20677;-59
2021/09/19 08:24:28;;;;;;;7.10;6.50;;;16.60;99.90;;;;;;5033042;28;20201;-54
2021/09/19 08:26:54;;;;;;;7.50;6.90;;;16.40;99.90;;;;;;5034594;28;20416;-58
2021/09/19 08:29:21;;;;;;;6.80;6.17;;;16.40;99.90;;;;;;5037338;28;20205;-58
2021/09/19 08:31:47;;;;;;;8.80;7.53;;;16.70;99.90;;;;;;5025987;28;20209;-58
2021/09/19 08:34:13;;;;;;;7.63;6.83;;;16.90;99.90;;;;;;5020104;28;20469;-59
2021/09/19 08:36:39;;;;;;;7.33;6.73;;;16.80;99.90;;;;;;5017332;28;20176;-55
2021/09/19 08:39:06;;;;;;;6.63;6.13;;;16.90;99.90;;;;;;5017242;28;20166;-59
2021/09/19 08:41:32;;;;;;;6.90;6.30;;;17.10;99.90;;;;;;5016897;28;20444;-59
2021/09/19 08:43:58;;;;;;;6.80;6.30;;;17.20;99.90;;;;;;5016963;28;20411;-57
2021/09/19 08:46:24;;;;;;;9.27;6.83;;;17.20;99.90;;;;;;5017087;28;20171;-55
2021/09/19 08:48:50;;;;;;;6.93;6.33;;;17.30;99.90;;;;;;5016613;28;20179;-59
2021/09/19 08:51:17;;;;;;;6.73;6.23;;;17.50;99.90;;;;;;5016810;28;20505;-56
2021/09/19 08:53:43;;;;;;;7.93;6.17;;;17.50;99.90;;;;;;5016974;28;20456;-58
2021/09/19 08:56:09;;;;;;;6.00;5.43;;;17.60;99.90;;;;;;5016623;28;20407;-58
2021/09/19 08:58:35;;;;;;;6.50;6.00;;;17.70;99.90;;;;;;5017134;28;20571;-59
2021/09/19 09:01:02;;;;;;;5.87;5.47;;;17.70;99.90;;;;;;5001924;28;20505;-56
2021/09/19 09:03:30;;;;;;;6.53;5.93;;;18.00;99.90;;;;;;5036119;28;20394;-59
2021/09/19 09:06:03;;;;;;;6.60;6.00;;;18.20;99.90;;;;;;5036197;28;20417;-58
2021/09/19 09:08:31;;;;;;;6.07;5.67;;;18.20;99.90;;;;;;5036977;28;20743;-54
2021/09/19 09:10:59;;;;;;;6.90;6.13;;;18.20;99.90;;;;;;5035847;28;20413;-57
2021/09/19 09:13:28;;;;;;;6.60;5.90;;;18.10;99.90;;;;;;5036493;28;20456;-59
2021/09/19 09:16:14;;;;;;;7.40;6.70;;;18.20;99.90;;;;;;5036376;28;20493;-59
2021/09/19 09:18:52;;;;;;;7.27;6.53;;;18.20;99.90;;;;;;5035743;28;20405;-58
2021/09/19 09:21:20;;;;;;;6.00;5.50;;;18.30;99.90;;;;;;5024428;28;20438;-58
2021/09/19 09:23:51;;;;;;;5.47;5.03;;;18.30;99.90;;;;;;5035978;28;20420;-59
2021/09/19 09:26:34;;;;;;;6.27;5.77;;;18.50;99.90;;;;;;5036159;28;20459;-58
2021/09/19 09:29:15;;;;;;;6.40;5.90;;;18.30;99.90;;;;;;5036471;28;20788;-59
2021/09/19 09:31:45;;;;;;;6.67;6.13;;;18.20;99.90;;;;;;5048164;23;20457;-58
2021/09/19 09:34:13;;;;;;;7.30;6.23;;;18.20;99.90;;;;;;4995770;28;20561;-61
2021/09/19 09:36:52;;;;;;;6.83;6.23;;;18.50;99.90;;;;;;4996604;28;20773;-60
2021/09/19 09:39:25;;;;;;;7.17;6.47;;;18.50;99.90;;;;;;4993958;28;20404;-62
2021/09/19 09:41:52;;;;;;;5.73;5.23;;;18.70;99.90;;;;;;4995794;28;20423;-61
2021/09/19 09:44:28;;;;;;;6.17;5.67;;;18.80;99.90;;;;;;4978692;28;20474;-61
2021/09/19 09:46:54;;;;;;;9.80;6.27;;;19.10;99.90;;;;;;4994692;28;20422;-61
2021/09/19 09:49:41;;;;;;;5.93;5.47;;;19.30;99.90;;;;;;4978238;28;20455;-60
2021/09/19 09:52:27;;;;;;;5.57;5.17;;;19.20;99.90;;;;;;4996175;28;20196;-60
2021/09/19 09:54:57;;;;;;;6.23;5.73;;;19.30;99.90;;;;;;4979154;28;20509;-62
2021/09/19 09:57:56;;;;;;;6.10;5.60;;;19.20;99.90;;;;;;4995475;28;20906;-62
2021/09/19 10:00:23;;;;;;;6.70;6.20;;;19.30;99.90;;;;;;4996235;28;20381;-62
2021/09/19 10:02:50;;;;;;;5.77;5.27;;;19.40;99.90;;;;;;4995711;28;20463;-62
2021/09/19 10:05:19;;;;;;;6.50;6.00;;;19.60;99.90;;;;;;4995644;28;20814;-62
2021/09/19 10:07:46;;;;;;;6.60;6.10;;;19.80;99.90;;;;;;4995802;28;20403;-62
2021/09/19 10:10:15;;;;;;;6.17;5.57;;;19.60;99.90;;;;;;4996067;28;20412;-62
2021/09/19 10:12:41;;;;;;;6.00;5.47;;;19.60;99.90;;;;;;4995326;28;20424;-62
2021/09/19 10:15:09;;;;;;;6.00;5.40;;;19.80;99.90;;;;;;4995551;28;20424;-62
2021/09/19 10:17:35;;;;;;;5.80;5.30;;;20.00;99.90;;;;;;4995781;28;20408;-62
2021/09/19 10:20:04;;;;;;;5.63;5.23;;;20.20;99.90;;;;;;4995131;28;20407;-62
2021/09/19 10:22:50;;;;;;;6.10;5.60;;;20.40;99.90;;;;;;4995456;28;20443;-62
2021/09/19 10:25:25;;;;;;;5.77;5.23;;;20.40;99.90;;;;;;4996183;28;20744;-62
2021/09/19 10:27:51;;;;;;;6.83;6.23;;;20.40;99.90;;;;;;4995278;28;20401;-62
2021/09/19 10:30:21;;;;;;;5.70;5.20;;;20.50;99.90;;;;;;4995374;28;20415;-63
2021/09/19 10:32:48;;;;;;;5.97;5.47;;;20.40;99.90;;;;;;4995328;28;20834;-62
2021/09/19 10:35:22;;;;;;;6.63;6.13;;;20.50;99.90;;;;;;4995207;28;20408;-62
2021/09/19 10:38:05;;;;;;;5.90;5.30;;;20.30;99.90;;;;;;4995364;28;20410;-62
2021/09/19 10:40:41;;;;;;;7.70;7.00;;;20.50;99.90;;;;;;4995450;28;20431;-62
2021/09/19 10:43:07;;;;;;;6.30;5.60;;;21.50;99.90;;;;;;4994800;28;20532;-62
2021/09/19 10:45:42;;;;;;;7.10;6.53;;;22.90;99.90;;;;;;4995281;28;20541;-62
2021/09/19 10:48:14;;;;;;;6.10;5.60;;;24.70;99.60;;;;;;4995034;28;20184;-61
2021/09/19 10:50:40;;;;;;;6.37;5.87;;;25.60;97.50;;;;;;4994985;28;20419;-62
2021/09/19 10:53:12;;;;;;;6.23;5.73;;;24.70;98.10;;;;;;4995150;28;20444;-63
2021/09/19 10:55:49;;;;;;;6.20;5.70;;;24.40;98.40;;;;;;4994964;28;20412;-63
2021/09/19 10:58:27;;;;;;;7.03;6.37;;;23.90;99.30;;;;;;4994436;28;20439;-63
2021/09/19 11:01:17;;;;;;;6.27;5.67;;;23.40;99.80;;;;;;4994965;28;20862;-62
2021/09/19 11:04:07;;;;;;;6.20;5.70;;;23.20;99.80;;;;;;4986389;28;20547;-62
2021/09/19 11:06:38;;;;;;;6.27;5.77;;;24.20;98.90;;;;;;4994801;28;20423;-63
2021/09/19 11:09:26;;;;;;;6.13;5.53;;;25.50;97.50;;;;;;4994575;28;20905;-63
2021/09/19 11:12:18;;;;;;;7.63;5.90;;;27.00;94.80;;;;;;4993973;28;20929;-63
2021/09/19 11:15:02;;;;;;;5.73;5.23;;;27.90;92.60;;;;;;4992072;28;20451;-63
2021/09/19 11:17:31;;;;;;;5.43;5.03;;;28.60;91.30;;;;;;4994190;28;20451;-63
2021/09/19 11:20:12;;;;;;;7.10;6.50;;;29.00;90.80;;;;;;4994075;28;20438;-63
2021/09/19 11:22:46;;;;;;;4.17;3.70;;;28.20;90.30;;;;;;4994582;28;20795;-63
2021/09/19 11:25:13;;;;;;;6.13;5.63;;;28.90;90.00;;;;;;4975007;28;20478;-63
2021/09/19 11:27:42;;;;;;;7.47;6.87;;;28.60;88.60;;;;;;4981386;28;20910;-63
2021/09/19 11:30:08;;;;;;;8.30;7.40;;;27.60;90.10;;;;;;4994565;28;20898;-63
2021/09/19 11:32:38;;;;;;;7.27;6.77;;;28.20;88.30;;;;;;4994061;28;20455;-63
2021/09/19 11:35:06;;;;;;;6.73;6.23;;;28.10;88.70;;;;;;4993782;28;20952;-63
2021/09/19 11:37:31;;;;;;;6.07;5.57;;;28.20;88.00;;;;;;4994073;28;20818;-62
2021/09/19 11:39:58;;;;;;;4.83;4.43;;;28.20;87.30;;;;;;4979440;28;20413;-63
2021/09/19 11:42:26;;;;;;;5.50;5.00;;;29.90;83.90;;;;;;4974673;28;20207;-63
2021/09/19 11:44:52;;;;;;;5.30;4.80;;;30.30;81.50;;;;;;4974992;28;20405;-63
2021/09/19 11:47:20;;;;;;;6.60;6.10;;;31.00;81.60;;;;;;4974679;28;20417;-63
2021/09/19 11:49:50;;;;;;;6.93;6.43;;;30.50;80.00;;;;;;4974281;28;20409;-64
2021/09/19 11:52:16;;;;;;;5.30;4.90;;;30.00;79.10;;;;;;4974472;28;20487;-63
2021/09/19 11:54:43;;;;;;;6.50;5.87;;;29.90;80.40;;;;;;4974534;28;20475;-63
2021/09/19 11:57:09;;;;;;;6.77;6.17;;;29.80;80.90;;;;;;4974538;28;20472;-63
2021/09/19 11:59:35;;;;;;;4.90;4.50;;;29.40;78.90;;;;;;4974841;28;20404;-63
2021/09/19 12:02:02;;;;;;;5.10;4.63;;;29.90;80.60;;;;;;4973732;28;20440;-63
2021/09/19 12:04:28;;;;;;;4.60;4.20;;;30.30;78.00;;;;;;4974187;28;20169;-63
2021/09/19 12:06:57;;;;;;;5.93;5.43;;;31.20;77.60;;;;;;4974682;28;20878;-64
2021/09/19 12:09:23;;;;;;;5.13;4.70;;;30.90;75.60;;;;;;4974647;28;20413;-63
2021/09/19 12:11:54;;;;;;;4.10;3.70;;;30.10;77.10;;;;;;4974042;28;20495;-63
2021/09/19 12:14:25;;;;;;;5.23;4.73;;;30.80;76.00;;;;;;4985561;28;20653;-63
2021/09/19 12:17:02;;;;;;;5.20;4.73;;;29.40;77.10;;;;;;4974609;28;20420;-63
2021/09/19 12:19:29;;;;;;;6.30;5.80;;;28.60;81.30;;;;;;4974137;28;20769;-63
2021/09/19 12:22:00;;;;;;;6.13;4.97;;;27.10;83.20;;;;;;4974107;28;20487;-63
2021/09/19 12:24:27;;;;;;;5.47;5.07;;;26.50;84.60;;;;;;4974354;28;20455;-63
2021/09/19 12:27:16;;;;;;;5.77;5.27;;;27.60;83.00;;;;;;4973816;28;20423;-63
2021/09/19 12:29:46;;;;;;;7.17;6.57;;;29.60;78.50;;;;;;4974258;28;20389;-63
2021/09/19 12:32:11;;;;;;;4.80;4.40;;;30.20;74.20;;;;;;4986579;28;20463;-64
2021/09/19 12:34:37;;;;;;;5.20;4.80;;;30.50;73.50;;;;;;4993423;28;20463;-63
2021/09/19 12:37:03;;;;;;;5.57;5.07;;;30.90;72.20;;;;;;4993479;28;20529;-63
2021/09/19 12:39:32;;;;;;;5.50;5.00;;;31.00;73.60;;;;;;4993484;28;20180;-63